sensor_id;sensor_type;location;lat;lon;timestamp;pressure;altitude;pressure_sealevel;temperature;humidity
1207;BME280;593;53.184;8.216;2022-09-13T00:00:48;100580.84;;;20.25;100.00
1207;BME280;593;53.184;8.216;2022-09-13T00:03:13;100574.28;;;20.18;100.00
1207;BME280;593;53.184;8.216;2022-09-13T00:05:39;100560.00;;;20.16;100.00
1207;BME280;593;53.184;8.216;2022-09-13T00:08:05;100567.69;;;20.22;100.00
1207;BME280;593;53.184;8.216;2022-09-13T00:10:33;100557.81;;;20.21;100.00
1207;BME280;593;53.184;8.216;2022-09-13T00:12:58;100552.63;;;20.20;100.00
1207;BME280;593;53.184;8.216;2022-09-13T00:15:24;100566.00;;;20.18;100.00
1207;BME280;593;53.184;8.216;2022-09-13T00:17:49;100555.63;;;20.15;100.00
1207;BME280;593;53.184;8.216;2022-09-13T00:20:15;100559.22;;;20.15;100.00
1207;BME280;593;53.184;8.216;2022-09-13T00:22:40;100546.34;;;20.07;100.00
1207;BME280;593;53.184;8.216;2022-09-13T00:25:06;100551.28;;;20.14;100.00
1207;BME280;593;53.184;8.216;2022-09-13T00:27:34;100548.03;;;20.12;100.00
1207;BME280;593;53.184;8.216;2022-09-13T00:30:00;100541.72;;;20.11;100.00
1207;BME280;593;53.184;8.216;2022-09-13T00:32:25;100537.72;;;20.09;100.00
1207;BME280;593;53.184;8.216;2022-09-13T00:34:51;100545.19;;;20.08;100.00
1207;BME280;593;53.184;8.216;2022-09-13T00:37:16;100537.22;;;20.07;100.00
1207;BME280;593;53.184;8.216;2022-09-13T00:39:42;100527.00;;;20.07;100.00
1207;BME280;593;53.184;8.216;2022-09-13T00:42:12;100529.31;;;20.05;100.00
1207;BME280;593;53.184;8.216;2022-09-13T00:44:49;100524.16;;;20.04;100.00
1207;BME280;593;53.184;8.216;2022-09-13T00:47:44;100516.19;;;20.02;100.00
1207;BME280;593;53.184;8.216;2022-09-13T00:52:42;100521.63;;;19.99;100.00
1207;BME280;593;53.184;8.216;2022-09-13T00:55:34;100520.00;;;19.98;100.00
1207;BME280;593;53.184;8.216;2022-09-13T00:58:07;100530.25;;;19.97;100.00
1207;BME280;593;53.184;8.216;2022-09-13T01:00:35;100534.94;;;19.97;100.00
1207;BME280;593;53.184;8.216;2022-09-13T01:03:03;100522.31;;;19.96;100.00
1207;BME280;593;53.184;8.216;2022-09-13T01:05:35;100515.53;;;19.93;100.00
1207;BME280;593;53.184;8.216;2022-09-13T01:08:03;100517.13;;;19.94;100.00
1207;BME280;593;53.184;8.216;2022-09-13T01:10:37;100517.47;;;19.93;100.00
1207;BME280;593;53.184;8.216;2022-09-13T01:13:08;100510.81;;;19.94;100.00
1207;BME280;593;53.184;8.216;2022-09-13T01:15:39;100499.28;;;19.92;100.00
1207;BME280;593;53.184;8.216;2022-09-13T01:18:06;100492.19;;;19.91;100.00
1207;BME280;593;53.184;8.216;2022-09-13T01:32:26;100471.16;;;19.86;100.00
1207;BME280;593;53.184;8.216;2022-09-13T01:40:57;100457.22;;;19.82;100.00
1207;BME280;593;53.184;8.216;2022-09-13T01:43:50;100428.84;;;19.70;100.00
1207;BME280;593;53.184;8.216;2022-09-13T01:46:24;100444.13;;;19.79;100.00
1207;BME280;593;53.184;8.216;2022-09-13T01:49:02;100444.13;;;19.79;100.00
1207;BME280;593;53.184;8.216;2022-09-13T01:57:14;100440.09;;;19.77;100.00
1207;BME280;593;53.184;8.216;2022-09-13T02:00:13;100439.66;;;19.75;100.00
1207;BME280;593;53.184;8.216;2022-09-13T02:03:03;100442.78;;;19.73;100.00
1207;BME280;593;53.184;8.216;2022-09-13T02:05:45;100443.59;;;19.74;100.00
1207;BME280;593;53.184;8.216;2022-09-13T02:08:15;100443.00;;;19.68;100.00
1207;BME280;593;53.184;8.216;2022-09-13T02:10:45;100444.72;;;19.73;100.00
1207;BME280;593;53.184;8.216;2022-09-13T02:13:15;100438.31;;;19.69;100.00
1207;BME280;593;53.184;8.216;2022-09-13T02:15:46;100438.63;;;19.67;100.00
1207;BME280;593;53.184;8.216;2022-09-13T02:18:35;100444.59;;;19.69;100.00
1207;BME280;593;53.184;8.216;2022-09-13T02:21:25;100446.22;;;19.70;100.00
1207;BME280;593;53.184;8.216;2022-09-13T02:24:05;100431.63;;;19.70;100.00
1207;BME280;593;53.184;8.216;2022-09-13T02:26:32;100437.94;;;19.70;100.00
1207;BME280;593;53.184;8.216;2022-09-13T02:29:02;100430.34;;;19.67;100.00
1207;BME280;593;53.184;8.216;2022-09-13T02:31:38;100435.53;;;19.69;100.00
1207;BME280;593;53.184;8.216;2022-09-13T02:34:17;100428.84;;;19.70;100.00
1207;BME280;593;53.184;8.216;2022-09-13T02:36:46;100418.19;;;19.68;100.00
1207;BME280;593;53.184;8.216;2022-09-13T02:39:15;100431.63;;;19.70;100.00
1207;BME280;593;53.184;8.216;2022-09-13T02:41:51;100422.88;;;19.68;100.00
1207;BME280;593;53.184;8.216;2022-09-13T02:44:29;100417.72;;;19.66;100.00
1207;BME280;593;53.184;8.216;2022-09-13T02:50:14;100424.03;;;19.67;100.00
1207;BME280;593;53.184;8.216;2022-09-13T02:55:17;100418.06;;;19.65;100.00
1207;BME280;593;53.184;8.216;2022-09-13T02:58:00;100411.72;;;19.64;100.00
1207;BME280;593;53.184;8.216;2022-09-13T03:00:28;100409.31;;;19.63;100.00
1207;BME280;593;53.184;8.216;2022-09-13T03:02:55;100423.13;;;19.63;100.00
1207;BME280;593;53.184;8.216;2022-09-13T03:05:22;100423.13;;;19.63;100.00
1207;BME280;593;53.184;8.216;2022-09-13T03:07:48;100420.38;;;19.63;100.00
1207;BME280;593;53.184;8.216;2022-09-13T03:10:15;100419.22;;;19.64;100.00
1207;BME280;593;53.184;8.216;2022-09-13T03:13:04;100414.84;;;19.63;100.00
1207;BME280;593;53.184;8.216;2022-09-13T03:26:41;100408.06;;;19.60;100.00
1207;BME280;593;53.184;8.216;2022-09-13T03:29:31;100421.06;;;19.60;100.00
1207;BME280;593;53.184;8.216;2022-09-13T03:37:43;100430.50;;;19.59;100.00
1207;BME280;593;53.184;8.216;2022-09-13T03:40:15;100437.16;;;19.58;100.00
1207;BME280;593;53.184;8.216;2022-09-13T03:42:49;100433.25;;;19.59;100.00
1207;BME280;593;53.184;8.216;2022-09-13T03:45:20;100432.09;;;19.60;100.00
1207;BME280;593;53.184;8.216;2022-09-13T03:47:49;100423.72;;;19.56;100.00
1207;BME280;593;53.184;8.216;2022-09-13T03:50:18;100426.56;;;19.60;100.00
1207;BME280;593;53.184;8.216;2022-09-13T03:52:46;100441.19;;;19.60;100.00
1207;BME280;593;53.184;8.216;2022-09-13T03:55:18;100441.19;;;19.60;100.00
1207;BME280;593;53.184;8.216;2022-09-13T03:57:44;100438.31;;;19.57;100.00
1207;BME280;593;53.184;8.216;2022-09-13T04:00:12;100436.47;;;19.61;100.00
1207;BME280;593;53.184;8.216;2022-09-13T04:02:38;100444.41;;;19.62;100.00
1207;BME280;593;53.184;8.216;2022-09-13T04:05:03;100438.06;;;19.62;100.00
1207;BME280;593;53.184;8.216;2022-09-13T04:07:28;100439.25;;;19.61;100.00
1207;BME280;593;53.184;8.216;2022-09-13T04:09:54;100441.31;;;19.64;100.00
1207;BME280;593;53.184;8.216;2022-09-13T04:12:20;100438.88;;;19.62;100.00
1207;BME280;593;53.184;8.216;2022-09-13T04:14:46;100446.00;;;19.63;100.00
1207;BME280;593;53.184;8.216;2022-09-13T04:17:12;100445.19;;;19.63;100.00
1207;BME280;593;53.184;8.216;2022-09-13T04:19:38;100436.94;;;19.63;100.00
1207;BME280;593;53.184;8.216;2022-09-13T04:22:03;100424.63;;;19.60;100.00
1207;BME280;593;53.184;8.216;2022-09-13T04:24:29;100436.56;;;19.64;100.00
1207;BME280;593;53.184;8.216;2022-09-13T04:26:55;100443.25;;;19.63;100.00
1207;BME280;593;53.184;8.216;2022-09-13T04:29:22;100434.53;;;19.61;100.00
1207;BME280;593;53.184;8.216;2022-09-13T04:31:49;100441.31;;;19.64;100.00
1207;BME280;593;53.184;8.216;2022-09-13T04:34:15;100437.28;;;19.61;100.00
1207;BME280;593;53.184;8.216;2022-09-13T04:36:43;100445.56;;;19.61;100.00
1207;BME280;593;53.184;8.216;2022-09-13T04:39:08;100448.09;;;19.66;100.00
1207;BME280;593;53.184;8.216;2022-09-13T04:41:34;100436.47;;;19.61;100.00
1207;BME280;593;53.184;8.216;2022-09-13T04:44:00;100444.50;;;19.66;100.00
1207;BME280;593;53.184;8.216;2022-09-13T04:46:26;100448.78;;;19.63;100.00
1207;BME280;593;53.184;8.216;2022-09-13T04:48:52;100443.69;;;19.65;100.00
1207;BME280;593;53.184;8.216;2022-09-13T04:51:18;100461.06;;;19.66;100.00
1207;BME280;593;53.184;8.216;2022-09-13T04:53:44;100462.66;;;19.67;100.00
1207;BME280;593;53.184;8.216;2022-09-13T04:56:10;100453.25;;;19.68;100.00
1207;BME280;593;53.184;8.216;2022-09-13T04:58:38;100446.47;;;19.65;100.00
1207;BME280;593;53.184;8.216;2022-09-13T05:01:06;100440.94;;;19.65;100.00
1207;BME280;593;53.184;8.216;2022-09-13T05:03:33;100447.72;;;19.68;100.00
1207;BME280;593;53.184;8.216;2022-09-13T05:06:10;100450.47;;;19.68;100.00
1207;BME280;593;53.184;8.216;2022-09-13T05:08:36;100444.97;;;19.68;100.00
1207;BME280;593;53.184;8.216;2022-09-13T05:11:02;100443.81;;;19.69;100.00
1207;BME280;593;53.184;8.216;2022-09-13T05:13:28;100442.19;;;19.68;100.00
1207;BME280;593;53.184;8.216;2022-09-13T05:16:00;100442.19;;;19.68;100.00
1207;BME280;593;53.184;8.216;2022-09-13T05:18:29;100447.03;;;19.71;100.00
1207;BME280;593;53.184;8.216;2022-09-13T05:20:59;100437.13;;;19.70;100.00
1207;BME280;593;53.184;8.216;2022-09-13T05:23:26;100442.66;;;19.70;100.00
1207;BME280;593;53.184;8.216;2022-09-13T05:25:57;100442.66;;;19.70;100.00
1207;BME280;593;53.184;8.216;2022-09-13T05:28:26;100439.91;;;19.70;100.00
1207;BME280;593;53.184;8.216;2022-09-13T05:30:59;100442.31;;;19.71;100.00
1207;BME280;593;53.184;8.216;2022-09-13T05:33:27;100440.69;;;19.70;100.00
1207;BME280;593;53.184;8.216;2022-09-13T05:35:53;100437.59;;;19.72;100.00
1207;BME280;593;53.184;8.216;2022-09-13T05:38:19;100442.66;;;19.70;100.00
1207;BME280;593;53.184;8.216;2022-09-13T05:40:45;100442.31;;;19.71;100.00
1207;BME280;593;53.184;8.216;2022-09-13T05:43:11;100448.63;;;19.72;100.00
1207;BME280;593;53.184;8.216;2022-09-13T05:45:36;100460.47;;;19.72;100.00
1207;BME280;593;53.184;8.216;2022-09-13T05:48:02;100450.94;;;19.70;100.00
1207;BME280;593;53.184;8.216;2022-09-13T05:50:27;100458.53;;;19.73;100.00
1207;BME280;593;53.184;8.216;2022-09-13T05:52:55;100463.22;;;19.72;100.00
1207;BME280;593;53.184;8.216;2022-09-13T05:55:21;100464.03;;;19.73;100.00
1207;BME280;593;53.184;8.216;2022-09-13T05:57:48;100453.25;;;19.68;100.00
1207;BME280;593;53.184;8.216;2022-09-13T06:00:14;100460.16;;;19.74;100.00
1207;BME280;593;53.184;8.216;2022-09-13T06:02:41;100450.69;;;19.75;100.00
1207;BME280;593;53.184;8.216;2022-09-13T06:05:08;100447.84;;;19.71;100.00
1207;BME280;593;53.184;8.216;2022-09-13T06:07:35;100452.63;;;19.74;100.00
1207;BME280;593;53.184;8.216;2022-09-13T06:10:00;100449.88;;;19.74;100.00
1207;BME280;593;53.184;8.216;2022-09-13T06:12:26;100447.94;;;19.75;100.00
1207;BME280;593;53.184;8.216;2022-09-13T06:14:51;100451.50;;;19.75;100.00
1207;BME280;593;53.184;8.216;2022-09-13T06:17:16;100454.72;;;19.77;100.00
1207;BME280;593;53.184;8.216;2022-09-13T06:19:42;100452.31;;;19.76;100.00
1207;BME280;593;53.184;8.216;2022-09-13T06:22:08;100462.63;;;19.79;100.00
1207;BME280;593;53.184;8.216;2022-09-13T06:24:34;100468.50;;;19.77;100.00
1207;BME280;593;53.184;8.216;2022-09-13T06:27:02;100470.91;;;19.79;100.00
1207;BME280;593;53.184;8.216;2022-09-13T06:29:27;100473.22;;;19.77;100.00
1207;BME280;593;53.184;8.216;2022-09-13T06:31:52;100468.50;;;19.77;100.00
1207;BME280;593;53.184;8.216;2022-09-13T06:34:18;100471.41;;;19.81;100.00
1207;BME280;593;53.184;8.216;2022-09-13T06:36:43;100471.84;;;19.83;100.00
1207;BME280;593;53.184;8.216;2022-09-13T06:39:09;100471.41;;;19.81;100.00
1207;BME280;593;53.184;8.216;2022-09-13T06:41:34;100469.88;;;19.83;100.00
1207;BME280;593;53.184;8.216;2022-09-13T06:44:00;100471.16;;;19.86;100.00
1207;BME280;593;53.184;8.216;2022-09-13T06:46:31;100484.94;;;19.86;100.00
1207;BME280;593;53.184;8.216;2022-09-13T06:49:05;100472.75;;;19.87;100.00
1207;BME280;593;53.184;8.216;2022-09-13T06:51:32;100477.94;;;19.89;100.00
1207;BME280;593;53.184;8.216;2022-09-13T06:53:58;100483.44;;;19.89;100.00
1207;BME280;593;53.184;8.216;2022-09-13T06:56:27;100479.19;;;19.91;100.00
1207;BME280;593;53.184;8.216;2022-09-13T06:58:59;100478.72;;;19.89;100.00
1207;BME280;593;53.184;8.216;2022-09-13T07:01:33;100478.72;;;19.89;100.00
1207;BME280;593;53.184;8.216;2022-09-13T07:04:07;100467.66;;;19.89;100.00
1207;BME280;593;53.184;8.216;2022-09-13T07:06:36;100459.63;;;19.84;100.00
1207;BME280;593;53.184;8.216;2022-09-13T07:09:04;100478.03;;;19.92;100.00
1207;BME280;593;53.184;8.216;2022-09-13T07:11:32;100482.03;;;19.95;100.00
1207;BME280;593;53.184;8.216;2022-09-13T07:13:59;100481.72;;;19.96;100.00
1207;BME280;593;53.184;8.216;2022-09-13T07:16:27;100488.94;;;20.01;100.00
1207;BME280;593;53.184;8.216;2022-09-13T07:18:57;100490.53;;;20.02;100.00
1207;BME280;593;53.184;8.216;2022-09-13T07:21:24;100494.47;;;20.01;100.00
1207;BME280;593;53.184;8.216;2022-09-13T07:23:52;100493.66;;;20.00;100.00
1207;BME280;593;53.184;8.216;2022-09-13T07:26:18;100498.03;;;20.01;100.00
1207;BME280;593;53.184;8.216;2022-09-13T07:28:45;100494.22;;;20.06;100.00
1207;BME280;593;53.184;8.216;2022-09-13T07:31:16;100499.03;;;20.09;100.00
1207;BME280;593;53.184;8.216;2022-09-13T07:33:43;100505.03;;;20.11;100.00
1207;BME280;593;53.184;8.216;2022-09-13T07:36:10;100505.72;;;20.08;100.00
1207;BME280;593;53.184;8.216;2022-09-13T07:38:37;100512.59;;;20.14;100.00
1207;BME280;593;53.184;8.216;2022-09-13T07:41:04;100512.59;;;20.14;100.00
1207;BME280;593;53.184;8.216;2022-09-13T07:43:32;100513.38;;;20.14;100.00
1207;BME280;593;53.184;8.216;2022-09-13T07:46:01;100510.28;;;20.16;100.00
1207;BME280;593;53.184;8.216;2022-09-13T07:48:29;100513.88;;;20.16;100.00
1207;BME280;593;53.184;8.216;2022-09-13T07:51:04;100525.69;;;20.17;100.00
1207;BME280;593;53.184;8.216;2022-09-13T07:53:31;100515.81;;;20.16;100.00
1207;BME280;593;53.184;8.216;2022-09-13T07:56:22;100516.63;;;20.16;100.00
1207;BME280;593;53.184;8.216;2022-09-13T07:58:49;100518.59;;;20.16;100.00
1207;BME280;593;53.184;8.216;2022-09-13T08:01:23;100525.38;;;20.18;100.00
1207;BME280;593;53.184;8.216;2022-09-13T08:03:53;100531.69;;;20.19;100.00
1207;BME280;593;53.184;8.216;2022-09-13T08:06:20;100530.53;;;20.20;100.00
1207;BME280;593;53.184;8.216;2022-09-13T08:08:46;100526.50;;;20.17;100.00
1207;BME280;593;53.184;8.216;2022-09-13T08:11:16;100532.97;;;20.21;100.00
1207;BME280;593;53.184;8.216;2022-09-13T08:13:43;100542.84;;;20.22;100.00
1207;BME280;593;53.184;8.216;2022-09-13T08:16:08;100534.56;;;20.22;100.00
1207;BME280;593;53.184;8.216;2022-09-13T08:18:33;100537.47;;;20.26;100.00
1207;BME280;593;53.184;8.216;2022-09-13T08:21:00;100539.06;;;20.27;100.00
1207;BME280;593;53.184;8.216;2022-09-13T08:23:26;100545.84;;;20.29;100.00
1207;BME280;593;53.184;8.216;2022-09-13T08:25:51;100539.53;;;20.29;100.00
1207;BME280;593;53.184;8.216;2022-09-13T08:28:19;100544.34;;;20.32;100.00
1207;BME280;593;53.184;8.216;2022-09-13T08:30:46;100539.63;;;20.32;100.00
1207;BME280;593;53.184;8.216;2022-09-13T08:33:12;100540.88;;;20.35;100.00
1207;BME280;593;53.184;8.216;2022-09-13T08:35:38;100532.94;;;20.33;100.00
1207;BME280;593;53.184;8.216;2022-09-13T08:38:04;100541.44;;;20.40;100.00
1207;BME280;593;53.184;8.216;2022-09-13T08:40:39;100550.97;;;20.43;100.00
1207;BME280;593;53.184;8.216;2022-09-13T08:46:00;100552.34;;;20.49;100.00
1207;BME280;593;53.184;8.216;2022-09-13T08:48:35;100545.22;;;20.48;100.00
1207;BME280;593;53.184;8.216;2022-09-13T08:51:06;100549.34;;;20.54;100.00
1207;BME280;593;53.184;8.216;2022-09-13T08:53:42;100552.19;;;20.58;100.00
1207;BME280;593;53.184;8.216;2022-09-13T09:07:01;100541.75;;;20.67;100.00
1207;BME280;593;53.184;8.216;2022-09-13T09:09:31;100542.69;;;20.71;100.00
1207;BME280;593;53.184;8.216;2022-09-13T09:14:59;100547.53;;;20.74;100.00
1207;BME280;593;53.184;8.216;2022-09-13T09:20:26;100541.19;;;20.73;100.00
1207;BME280;593;53.184;8.216;2022-09-13T09:22:54;100548.78;;;20.76;100.00
1207;BME280;593;53.184;8.216;2022-09-13T09:25:22;100557.50;;;20.78;100.00
1207;BME280;593;53.184;8.216;2022-09-13T09:27:50;100535.66;;;20.73;100.00
1207;BME280;593;53.184;8.216;2022-09-13T09:30:15;100543.69;;;20.78;100.00
1207;BME280;593;53.184;8.216;2022-09-13T09:32:51;100550.47;;;20.81;100.00
1207;BME280;593;53.184;8.216;2022-09-13T09:35:45;100547.34;;;20.82;100.00
1207;BME280;593;53.184;8.216;2022-09-13T09:38:38;100547.00;;;20.84;100.00
1207;BME280;593;53.184;8.216;2022-09-13T09:41:30;100555.19;;;20.80;100.00
1207;BME280;593;53.184;8.216;2022-09-13T09:44:19;100549.28;;;20.82;100.00
1207;BME280;593;53.184;8.216;2022-09-13T09:47:21;100552.44;;;20.80;100.00
1207;BME280;593;53.184;8.216;2022-09-13T09:49:56;100555.63;;;20.82;100.00
1207;BME280;593;53.184;8.216;2022-09-13T09:52:43;100556.81;;;20.81;100.00
1207;BME280;593;53.184;8.216;2022-09-13T09:58:09;100554.81;;;20.82;99.32
1207;BME280;593;53.184;8.216;2022-09-13T10:00:37;100553.31;;;20.84;98.39
1207;BME280;593;53.184;8.216;2022-09-13T10:03:20;100556.88;;;20.85;98.29
1207;BME280;593;53.184;8.216;2022-09-13T10:05:48;100552.63;;;20.87;97.93
1207;BME280;593;53.184;8.216;2022-09-13T10:08:27;100549.41;;;20.85;97.28
1207;BME280;593;53.184;8.216;2022-09-13T10:10:56;100543.06;;;20.85;96.56
1207;BME280;593;53.184;8.216;2022-09-13T10:13:23;100546.19;;;20.83;93.58
1207;BME280;593;53.184;8.216;2022-09-13T10:15:56;100548.97;;;20.83;91.25
1207;BME280;593;53.184;8.216;2022-09-13T10:18:24;100541.00;;;20.82;89.64
1207;BME280;593;53.184;8.216;2022-09-13T10:21:19;100549.66;;;20.80;88.35
1207;BME280;593;53.184;8.216;2022-09-13T10:23:46;100546.44;;;20.78;87.43
1207;BME280;593;53.184;8.216;2022-09-13T10:26:25;100552.88;;;20.82;87.06
1207;BME280;593;53.184;8.216;2022-09-13T10:31:17;100545.56;;;20.90;86.38
1207;BME280;593;53.184;8.216;2022-09-13T10:36:25;100542.38;;;20.88;85.24
1207;BME280;593;53.184;8.216;2022-09-13T10:39:00;100553.16;;;20.93;85.69
1207;BME280;593;53.184;8.216;2022-09-13T10:41:28;100543.72;;;20.94;85.42
1207;BME280;593;53.184;8.216;2022-09-13T10:43:56;100549.25;;;20.94;85.03
1207;BME280;593;53.184;8.216;2022-09-13T10:46:23;100543.72;;;20.94;84.42
1207;BME280;593;53.184;8.216;2022-09-13T10:48:49;100548.53;;;20.97;84.46
1207;BME280;593;53.184;8.216;2022-09-13T10:54:07;100545.31;;;20.95;83.15
1207;BME280;593;53.184;8.216;2022-09-13T10:56:33;100545.56;;;20.90;81.97
1207;BME280;593;53.184;8.216;2022-09-13T11:07:14;100557.06;;;20.92;80.85
1207;BME280;593;53.184;8.216;2022-09-13T11:09:59;100563.88;;;20.94;79.70
1207;BME280;593;53.184;8.216;2022-09-13T11:12:44;100561.91;;;20.95;80.75
1207;BME280;593;53.184;8.216;2022-09-13T11:15:35;100559.94;;;20.95;81.18
1207;BME280;593;53.184;8.216;2022-09-13T11:18:17;100550.03;;;20.94;79.94
1207;BME280;593;53.184;8.216;2022-09-13T11:23:48;100549.97;;;20.91;80.09
1207;BME280;593;53.184;8.216;2022-09-13T11:29:09;100542.47;;;20.91;80.58
1207;BME280;593;53.184;8.216;2022-09-13T11:32:01;100550.13;;;20.98;80.83
1207;BME280;593;53.184;8.216;2022-09-13T11:37:14;100542.28;;;21.00;79.84
1207;BME280;593;53.184;8.216;2022-09-13T11:40:09;100542.38;;;21.03;80.00
1207;BME280;593;53.184;8.216;2022-09-13T11:42:48;100545.50;;;21.02;78.51
1207;BME280;593;53.184;8.216;2022-09-13T11:45:32;100544.34;;;21.03;77.66
1207;BME280;593;53.184;8.216;2022-09-13T11:53:50;100533.66;;;21.17;79.76
1207;BME280;593;53.184;8.216;2022-09-13T11:56:35;100534.47;;;21.18;78.86
1207;BME280;593;53.184;8.216;2022-09-13T11:59:14;100529.50;;;21.23;78.21
1207;BME280;593;53.184;8.216;2022-09-13T12:01:53;100531.09;;;21.24;76.75
1207;BME280;593;53.184;8.216;2022-09-13T12:04:32;100533.69;;;21.33;77.65
1207;BME280;593;53.184;8.216;2022-09-13T12:07:08;100534.22;;;21.38;77.51
1207;BME280;593;53.184;8.216;2022-09-13T12:09:40;100526.19;;;21.33;76.56
1207;BME280;593;53.184;8.216;2022-09-13T12:12:12;100537.25;;;21.49;77.04
1207;BME280;593;53.184;8.216;2022-09-13T12:14:59;100530.19;;;21.51;74.60
1207;BME280;593;53.184;8.216;2022-09-13T12:20:02;100547.41;;;21.60;74.14
1207;BME280;593;53.184;8.216;2022-09-13T12:22:32;100533.66;;;21.64;73.32
1207;BME280;593;53.184;8.216;2022-09-13T12:25:02;100535.34;;;21.68;73.72
1207;BME280;593;53.184;8.216;2022-09-13T12:27:42;100539.09;;;21.76;72.35
1207;BME280;593;53.184;8.216;2022-09-13T12:30:18;100528.44;;;21.78;73.29
1207;BME280;593;53.184;8.216;2022-09-13T12:32:45;100529.31;;;21.82;72.46
1207;BME280;593;53.184;8.216;2022-09-13T12:38:03;100530.41;;;21.93;74.39
1207;BME280;593;53.184;8.216;2022-09-13T12:40:53;100523.50;;;22.03;74.92
1207;BME280;593;53.184;8.216;2022-09-13T13:00:12;100532.91;;;22.56;72.77
1207;BME280;593;53.184;8.216;2022-09-13T13:07:58;100528.78;;;22.65;70.22
1207;BME280;593;53.184;8.216;2022-09-13T13:10:33;100548.41;;;22.76;70.68
1207;BME280;593;53.184;8.216;2022-09-13T13:13:13;100544.09;;;22.78;69.68
1207;BME280;593;53.184;8.216;2022-09-13T13:18:46;100538.38;;;22.90;68.45
1207;BME280;593;53.184;8.216;2022-09-13T13:21:28;100525.69;;;22.89;67.87
1207;BME280;593;53.184;8.216;2022-09-13T13:26:50;100525.09;;;23.00;67.31
1207;BME280;593;53.184;8.216;2022-09-13T13:36:49;100537.41;;;23.25;66.60
1207;BME280;593;53.184;8.216;2022-09-13T13:57:34;100529.81;;;23.67;64.39
1207;BME280;593;53.184;8.216;2022-09-13T14:05:48;100529.50;;;23.72;63.51
1207;BME280;593;53.184;8.216;2022-09-13T14:19:36;100521.59;;;23.74;65.82
1207;BME280;593;53.184;8.216;2022-09-13T14:22:29;100530.72;;;23.75;66.41
1207;BME280;593;53.184;8.216;2022-09-13T14:27:39;100532.72;;;23.78;66.65
1207;BME280;593;53.184;8.216;2022-09-13T14:32:55;100528.84;;;23.82;66.45
1207;BME280;593;53.184;8.216;2022-09-13T14:37:54;100527.66;;;23.83;66.77
1207;BME280;593;53.184;8.216;2022-09-13T14:40:25;100522.97;;;23.87;66.29
1207;BME280;593;53.184;8.216;2022-09-13T14:42:52;100528.94;;;23.89;66.31
1207;BME280;593;53.184;8.216;2022-09-13T14:50:29;100514.19;;;23.85;65.18
1207;BME280;593;53.184;8.216;2022-09-13T14:53:00;100528.19;;;23.92;64.78
1207;BME280;593;53.184;8.216;2022-09-13T14:55:34;100532.63;;;23.97;64.35
1207;BME280;593;53.184;8.216;2022-09-13T14:58:06;100530.66;;;23.97;64.34
1207;BME280;593;53.184;8.216;2022-09-13T15:00:51;100534.28;;;24.01;64.27
1207;BME280;593;53.184;8.216;2022-09-13T15:03:19;100525.88;;;23.98;63.92
1207;BME280;593;53.184;8.216;2022-09-13T15:05:55;100523.50;;;23.96;62.95
1207;BME280;593;53.184;8.216;2022-09-13T15:11:04;100527.44;;;23.95;62.88
1207;BME280;593;53.184;8.216;2022-09-13T15:13:30;100529.44;;;23.95;62.48
1207;BME280;593;53.184;8.216;2022-09-13T15:15:56;100527.88;;;23.97;62.13
1207;BME280;593;53.184;8.216;2022-09-13T15:18:24;100519.97;;;23.99;62.42
1207;BME280;593;53.184;8.216;2022-09-13T15:20:53;100524.28;;;23.97;61.85
1207;BME280;593;53.184;8.216;2022-09-13T15:23:39;100538.53;;;23.95;61.43
1207;BME280;593;53.184;8.216;2022-09-13T15:26:07;100541.72;;;23.94;61.57
1207;BME280;593;53.184;8.216;2022-09-13T15:31:05;100542.47;;;23.91;61.12
1207;BME280;593;53.184;8.216;2022-09-13T15:33:33;100542.84;;;23.89;60.79
1207;BME280;593;53.184;8.216;2022-09-13T15:41:22;100536.31;;;23.78;60.61
1207;BME280;593;53.184;8.216;2022-09-13T15:43:49;100529.91;;;23.74;60.34
1207;BME280;593;53.184;8.216;2022-09-13T15:46:16;100537.38;;;23.70;59.90
1207;BME280;593;53.184;8.216;2022-09-13T15:48:51;100544.88;;;23.66;60.06
1207;BME280;593;53.184;8.216;2022-09-13T15:51:17;100542.78;;;23.59;60.50
1207;BME280;593;53.184;8.216;2022-09-13T15:53:44;100548.66;;;23.54;60.74
1207;BME280;593;53.184;8.216;2022-09-13T15:56:16;100539.03;;;23.48;60.48
1207;BME280;593;53.184;8.216;2022-09-13T15:58:42;100537.38;;;23.44;60.60
1207;BME280;593;53.184;8.216;2022-09-13T16:01:11;100541.69;;;23.41;60.41
1207;BME280;593;53.184;8.216;2022-09-13T16:03:37;100549.41;;;23.32;60.85
1207;BME280;593;53.184;8.216;2022-09-13T16:06:03;100552.59;;;23.31;60.52
1207;BME280;593;53.184;8.216;2022-09-13T16:08:29;100555.66;;;23.26;60.75
1207;BME280;593;53.184;8.216;2022-09-13T16:10:54;100550.81;;;23.19;60.37
1207;BME280;593;53.184;8.216;2022-09-13T16:13:19;100547.16;;;23.15;60.95
1207;BME280;593;53.184;8.216;2022-09-13T16:15:45;100550.22;;;23.10;61.17
1207;BME280;593;53.184;8.216;2022-09-13T16:18:10;100545.78;;;23.06;61.18
1207;BME280;593;53.184;8.216;2022-09-13T16:20:36;100555.22;;;23.01;61.06
1207;BME280;593;53.184;8.216;2022-09-13T16:23:01;100551.13;;;22.95;61.19
1207;BME280;593;53.184;8.216;2022-09-13T16:25:27;100554.22;;;22.90;61.41
1207;BME280;593;53.184;8.216;2022-09-13T16:27:52;100550.97;;;22.84;61.44
1207;BME280;593;53.184;8.216;2022-09-13T16:30:20;100552.00;;;22.76;61.46
1207;BME280;593;53.184;8.216;2022-09-13T16:32:47;100551.19;;;22.76;61.38
1207;BME280;593;53.184;8.216;2022-09-13T16:35:12;100544.59;;;22.65;61.02
1207;BME280;593;53.184;8.216;2022-09-13T16:37:39;100553.75;;;22.65;61.79
1207;BME280;593;53.184;8.216;2022-09-13T16:40:06;100544.88;;;22.60;61.52
1207;BME280;593;53.184;8.216;2022-09-13T16:42:33;100536.84;;;22.55;62.10
1207;BME280;593;53.184;8.216;2022-09-13T16:44:59;100552.63;;;22.51;62.38
1207;BME280;593;53.184;8.216;2022-09-13T16:47:24;100544.50;;;22.42;62.30
1207;BME280;593;53.184;8.216;2022-09-13T16:49:50;100553.28;;;22.44;62.38
1207;BME280;593;53.184;8.216;2022-09-13T16:52:16;100549.91;;;22.35;62.53
1207;BME280;593;53.184;8.216;2022-09-13T16:54:41;100553.88;;;22.34;62.56